createdAt,value
2022-08-07T00:00:24.348Z,3.42
2022-08-07T00:02:50.983Z,2.80
2022-08-07T00:05:19.908Z,3.10
2022-08-07T00:07:46.211Z,2.75
2022-08-07T00:10:27.050Z,2.72
2022-08-07T00:12:57.839Z,2.92
2022-08-07T00:15:26.401Z,2.63
2022-08-07T00:18:05.314Z,2.60
2022-08-07T00:20:34.535Z,2.55
2022-08-07T00:23:01.966Z,2.40
2022-08-07T00:25:28.338Z,2.05
2022-08-07T00:28:04.027Z,2.60
2022-08-07T00:30:31.283Z,2.30
2022-08-07T00:32:58.626Z,2.30
2022-08-07T00:35:25.060Z,2.40
2022-08-07T00:37:51.351Z,2.80
2022-08-07T00:40:39.624Z,2.45
2022-08-07T00:43:04.595Z,2.50
2022-08-07T00:45:38.524Z,2.20
2022-08-07T00:48:09.624Z,2.40
2022-08-07T00:50:46.208Z,2.40
2022-08-07T00:53:17.193Z,2.30
2022-08-07T00:56:00.749Z,2.30
2022-08-07T00:58:30.232Z,2.10
2022-08-07T01:00:56.499Z,2.20
2022-08-07T01:03:54.544Z,2.67
2022-08-07T01:06:09.563Z,2.30
2022-08-07T01:08:43.173Z,2.28
2022-08-07T01:12:27.623Z,2.25
2022-08-07T01:14:07.296Z,2.40
2022-08-07T01:16:36.547Z,2.40
2022-08-07T01:19:03.697Z,2.40
2022-08-07T01:21:30.394Z,2.33
2022-08-07T01:23:57.858Z,2.20
2022-08-07T01:26:26.132Z,1.92
2022-08-07T01:28:53.682Z,2.13
2022-08-07T01:31:20.799Z,2.00
2022-08-07T01:33:55.369Z,2.25
2022-08-07T01:36:33.920Z,1.80
2022-08-07T01:39:09.416Z,2.33
2022-08-07T01:41:37.747Z,1.90
2022-08-07T01:44:05.291Z,2.28
2022-08-07T01:46:31.675Z,2.05
2022-08-07T01:48:59.944Z,2.30
2022-08-07T01:52:02.326Z,2.30
2022-08-07T01:54:21.884Z,2.40
2022-08-07T01:57:08.258Z,2.13
2022-08-07T01:59:53.796Z,2.10
2022-08-07T02:02:32.866Z,2.42
2022-08-07T02:05:16.145Z,2.50
2022-08-07T02:08:01.494Z,2.63
2022-08-07T02:10:27.910Z,2.50
2022-08-07T02:12:56.689Z,2.80
2022-08-07T02:15:28.017Z,2.25
2022-08-07T02:17:56.523Z,2.40
2022-08-07T02:20:24.124Z,2.47
2022-08-07T02:22:57.437Z,2.22
2022-08-07T02:26:10.589Z,2.15
2022-08-07T02:28:14.460Z,2.40
2022-08-07T02:30:51.697Z,2.38
2022-08-07T02:33:19.316Z,2.40
2022-08-07T02:36:28.480Z,2.20
2022-08-07T02:38:36.875Z,2.17
2022-08-07T02:41:04.379Z,2.25
2022-08-07T02:43:31.103Z,2.60
2022-08-07T02:46:02.172Z,2.33
2022-08-07T02:48:29.236Z,2.17
2022-08-07T02:50:56.144Z,2.20
2022-08-07T02:53:27.608Z,2.58
2022-08-07T02:56:03.663Z,2.83
2022-08-07T02:58:33.297Z,2.35
2022-08-07T03:01:00.614Z,2.00
2022-08-07T03:03:42.186Z,1.80
2022-08-07T03:06:16.409Z,1.95
2022-08-07T03:08:43.400Z,1.50
2022-08-07T03:11:10.560Z,1.90
2022-08-07T03:13:39.280Z,2.00
2022-08-07T03:16:16.931Z,2.30
2022-08-07T03:18:44.586Z,1.70
2022-08-07T03:21:14.319Z,1.90
2022-08-07T03:24:18.219Z,2.00
2022-08-07T03:26:33.839Z,2.50
2022-08-07T03:29:03.853Z,2.83
2022-08-07T03:31:43.116Z,2.40
2022-08-07T03:34:18.453Z,3.15
2022-08-07T03:36:50.525Z,2.90
2022-08-07T03:39:17.708Z,2.60
2022-08-07T03:42:04.548Z,2.65
2022-08-07T03:44:34.670Z,2.58
2022-08-07T03:47:13.949Z,2.50
2022-08-07T03:49:41.455Z,2.20
2022-08-07T03:52:22.334Z,1.73
2022-08-07T03:54:55.089Z,1.85
2022-08-07T03:58:33.992Z,1.77
2022-08-07T04:00:12.382Z,1.80
2022-08-07T04:02:43.042Z,2.05
2022-08-07T04:05:13.827Z,2.10
2022-08-07T04:07:45.373Z,2.40
2022-08-07T04:10:15.729Z,2.20
2022-08-07T04:12:46.412Z,2.30
2022-08-07T04:15:14.578Z,2.03
2022-08-07T04:18:31.218Z,1.88
2022-08-07T04:20:29.022Z,1.95
2022-08-07T04:23:01.969Z,1.90
2022-08-07T04:25:38.996Z,1.83
2022-08-07T04:28:06.547Z,1.70
2022-08-07T04:30:43.499Z,1.80
2022-08-07T04:33:23.231Z,1.70
2022-08-07T04:35:50.582Z,1.75
2022-08-07T04:38:17.722Z,2.20
2022-08-07T04:40:51.991Z,1.83
2022-08-07T04:44:11.742Z,1.85
2022-08-07T04:46:29.439Z,1.77
2022-08-07T04:49:02.007Z,1.70
2022-08-07T04:51:53.561Z,1.67
2022-08-07T04:54:30.335Z,1.80
2022-08-07T04:58:16.887Z,1.50
2022-08-07T05:00:14.412Z,1.58
2022-08-07T05:02:35.480Z,1.80
2022-08-07T05:05:11.995Z,1.80
2022-08-07T05:08:12.364Z,2.22
2022-08-07T05:10:41.635Z,1.88
2022-08-07T05:14:55.213Z,1.40
2022-08-07T05:16:04.451Z,1.80
2022-08-07T05:18:33.821Z,1.58
2022-08-07T05:21:01.892Z,1.63
2022-08-07T05:23:35.558Z,2.05
2022-08-07T05:26:13.491Z,1.80
2022-08-07T05:28:46.693Z,2.00
2022-08-07T05:31:16.755Z,1.90
2022-08-07T05:34:01.292Z,2.10
2022-08-07T05:36:32.408Z,2.72
2022-08-07T05:39:08.733Z,3.30
2022-08-07T05:42:02.762Z,3.15
2022-08-07T05:44:29.407Z,3.78
2022-08-07T05:46:56.492Z,4.55
2022-08-07T05:49:22.914Z,4.30
2022-08-07T05:51:49.355Z,4.55
2022-08-07T05:54:44.650Z,4.97
2022-08-07T05:57:06.049Z,4.55
2022-08-07T05:59:38.973Z,4.43
2022-08-07T06:02:28.831Z,5.38
2022-08-07T06:04:57.314Z,5.07
2022-08-07T06:08:14.917Z,5.32
2022-08-07T06:10:11.423Z,5.40
2022-08-07T06:12:41.859Z,5.72
2022-08-07T06:15:09.394Z,5.72
2022-08-07T06:17:43.001Z,5.70
2022-08-07T06:20:25.442Z,5.50
2022-08-07T06:23:24.940Z,5.35
2022-08-07T06:25:57.026Z,5.03
2022-08-07T06:28:27.542Z,5.47
2022-08-07T06:30:54.807Z,6.50
2022-08-07T06:33:22.570Z,5.40
2022-08-07T06:36:13.533Z,6.93
2022-08-07T06:38:35.729Z,6.00
2022-08-07T06:41:02.402Z,6.47
2022-08-07T06:43:39.409Z,7.00
2022-08-07T06:46:06.751Z,6.57
2022-08-07T06:48:38.828Z,7.18
2022-08-07T06:51:09.785Z,6.03
2022-08-07T06:55:27.437Z,7.32
2022-08-07T06:56:49.403Z,7.07
2022-08-07T07:00:12.664Z,7.20
2022-08-07T07:02:11.551Z,8.00
2022-08-07T07:04:38.176Z,7.72
2022-08-07T07:07:19.048Z,7.28
2022-08-07T07:09:56.591Z,6.70
2022-08-07T07:12:31.154Z,7.93
2022-08-07T07:15:03.825Z,7.20
2022-08-07T07:17:39.198Z,7.22
2022-08-07T07:20:13.261Z,6.70
2022-08-07T07:24:08.822Z,6.57
2022-08-07T07:26:34.133Z,6.60
2022-08-07T07:28:42.184Z,6.65
2022-08-07T07:31:03.773Z,6.20
2022-08-07T07:33:32.551Z,6.03
2022-08-07T07:36:05.718Z,6.55
2022-08-07T07:38:40.386Z,26.60
2022-08-07T07:41:10.801Z,14.60
2022-08-07T07:43:48.134Z,6.13
2022-08-07T07:46:40.606Z,5.78
2022-08-07T07:50:34.517Z,5.20
2022-08-07T07:52:02.339Z,5.40
2022-08-07T07:54:30.546Z,5.45
2022-08-07T07:57:00.433Z,4.50
2022-08-07T07:59:52.283Z,4.90
2022-08-07T08:02:22.493Z,2.90
2022-08-07T08:05:02.903Z,3.45
2022-08-07T08:07:36.018Z,3.75
2022-08-07T08:10:10.173Z,3.70
2022-08-07T08:12:59.057Z,2.30
2022-08-07T08:15:27.432Z,3.28
2022-08-07T08:18:17.611Z,3.10
2022-08-07T08:20:45.133Z,3.00
2022-08-07T08:23:33.331Z,2.93
2022-08-07T08:26:21.170Z,2.70
2022-08-07T08:28:51.121Z,3.05
2022-08-07T08:31:59.075Z,2.75
2022-08-07T08:34:19.051Z,2.85
2022-08-07T08:36:57.570Z,2.63
2022-08-07T08:39:25.217Z,2.90
2022-08-07T08:42:11.650Z,2.83
2022-08-07T08:44:54.042Z,2.63
2022-08-07T08:47:20.951Z,2.70
2022-08-07T08:50:02.482Z,2.50
2022-08-07T08:52:36.210Z,2.55
2022-08-07T08:55:20.757Z,2.70
2022-08-07T09:00:14.907Z,2.65
2022-08-07T09:03:01.913Z,2.72
2022-08-07T09:05:37.716Z,2.50
2022-08-07T09:10:45.102Z,2.83
2022-08-07T09:13:14.790Z,3.03
2022-08-07T09:16:23.930Z,2.55
2022-08-07T09:18:58.569Z,2.80
2022-08-07T09:21:58.265Z,2.40
2022-08-07T09:24:55.017Z,2.50
2022-08-07T09:27:27.962Z,2.70
2022-08-07T09:30:06.432Z,2.53
2022-08-07T09:32:50.537Z,2.60
2022-08-07T09:36:04.300Z,2.22
2022-08-07T09:38:15.835Z,2.80
2022-08-07T09:40:50.765Z,2.60
2022-08-07T09:43:40.241Z,2.10
2022-08-07T09:47:37.326Z,2.30
2022-08-07T09:50:00.406Z,1.85
2022-08-07T09:52:16.462Z,1.90
2022-08-07T09:55:02.811Z,2.08
2022-08-07T09:57:48.299Z,2.20
2022-08-07T10:00:16.138Z,2.08
2022-08-07T10:03:07.902Z,2.30
2022-08-07T10:05:59.429Z,1.88
2022-08-07T10:08:32.222Z,1.70
2022-08-07T10:11:17.278Z,1.98
2022-08-07T10:14:01.744Z,1.88
2022-08-07T10:16:34.575Z,1.80
2022-08-07T10:19:21.140Z,2.00
2022-08-07T10:22:16.333Z,2.10
2022-08-07T10:24:50.895Z,2.03
2022-08-07T10:27:30.226Z,1.80
2022-08-07T10:30:15.392Z,1.98
2022-08-07T10:32:52.898Z,2.17
2022-08-07T10:35:25.544Z,1.77
2022-08-07T10:38:21.164Z,1.73
2022-08-07T10:40:50.385Z,1.95
2022-08-07T10:43:34.129Z,1.87
2022-08-07T10:46:04.231Z,1.77
2022-08-07T10:49:02.933Z,1.70
2022-08-07T10:51:57.222Z,1.70
2022-08-07T10:54:53.421Z,1.80
2022-08-07T10:57:43.114Z,1.98
2022-08-07T11:00:39.136Z,1.60
2022-08-07T11:03:03.345Z,1.55
2022-08-07T11:05:55.140Z,1.60
2022-08-07T11:08:32.239Z,1.58
2022-08-07T11:11:03.528Z,1.67
2022-08-07T11:14:42.558Z,1.77
2022-08-07T11:16:30.469Z,1.75
2022-08-07T11:19:09.964Z,1.65
2022-08-07T11:21:42.940Z,1.53
2022-08-07T11:24:16.245Z,1.40
2022-08-07T11:27:03.334Z,1.38
2022-08-07T11:29:47.251Z,1.63
2022-08-07T11:32:25.703Z,1.20
2022-08-07T11:34:58.153Z,1.38
2022-08-07T11:37:57.789Z,1.33
2022-08-07T11:41:04.216Z,1.55
2022-08-07T11:44:10.779Z,1.60
2022-08-07T11:46:50.847Z,1.40
2022-08-07T11:49:50.606Z,1.15
2022-08-07T11:52:29.041Z,2.08
2022-08-07T11:55:18.716Z,1.60
2022-08-07T11:58:01.187Z,1.60
2022-08-07T12:00:53.628Z,1.30
2022-08-07T12:03:45.606Z,1.35
2022-08-07T12:06:38.981Z,1.42
2022-08-07T12:09:16.429Z,1.60
2022-08-07T12:12:10.294Z,1.40
2022-08-07T12:14:38.695Z,1.38
2022-08-07T12:17:10.181Z,1.40
2022-08-07T12:20:10.327Z,1.23
2022-08-07T12:23:09.134Z,1.50
2022-08-07T12:26:22.928Z,1.63
2022-08-07T12:28:55.997Z,1.60
2022-08-07T12:31:52.998Z,1.42
2022-08-07T12:34:20.108Z,1.50
2022-08-07T12:36:49.570Z,1.40
2022-08-07T12:42:03.995Z,1.50
2022-08-07T12:44:34.955Z,1.50
2022-08-07T12:47:21.510Z,1.20
2022-08-07T12:50:38.443Z,1.50
2022-08-07T12:53:18.159Z,1.48
2022-08-07T12:56:09.219Z,1.55
2022-08-07T12:58:39.301Z,1.30
2022-08-07T13:01:06.234Z,1.33
2022-08-07T13:03:56.179Z,1.35
2022-08-07T13:07:00.682Z,1.92
2022-08-07T13:10:19.926Z,1.90
2022-08-07T13:12:22.062Z,1.50
2022-08-07T13:14:59.306Z,1.58
2022-08-07T13:17:49.610Z,1.85
2022-08-07T13:20:27.871Z,1.63
2022-08-07T13:23:09.910Z,1.50
2022-08-07T13:26:00.806Z,1.50
2022-08-07T13:28:48.129Z,1.50
2022-08-07T13:31:21.012Z,1.70
2022-08-07T13:34:30.566Z,1.80
2022-08-07T13:36:41.768Z,1.25
2022-08-07T13:39:28.538Z,1.33
2022-08-07T13:42:10.404Z,1.58
2022-08-07T13:44:38.713Z,1.63
2022-08-07T13:47:09.194Z,2.03
2022-08-07T13:50:33.402Z,2.58
2022-08-07T13:52:36.334Z,1.40
2022-08-07T13:55:11.042Z,1.70
2022-08-07T13:57:58.946Z,1.60
2022-08-07T14:00:50.437Z,1.58
2022-08-07T14:03:29.549Z,1.50
2022-08-07T14:06:10.300Z,1.40
2022-08-07T14:08:40.451Z,1.73
2022-08-07T14:11:15.404Z,1.70
2022-08-07T14:13:47.263Z,2.00
2022-08-07T14:16:16.723Z,1.70
2022-08-07T14:18:49.775Z,2.00
2022-08-07T14:22:02.371Z,1.70
2022-08-07T14:24:27.466Z,1.80
2022-08-07T14:26:58.671Z,1.98
2022-08-07T14:30:06.232Z,1.90
2022-08-07T14:32:19.145Z,1.70
2022-08-07T14:34:47.054Z,1.70
2022-08-07T14:37:16.473Z,1.50
2022-08-07T14:40:18.364Z,1.50
2022-08-07T14:42:33.727Z,1.50
2022-08-07T14:45:06.431Z,1.45
2022-08-07T14:47:49.492Z,1.42
2022-08-07T14:50:19.794Z,1.40
2022-08-07T14:52:50.420Z,1.33
2022-08-07T14:55:18.116Z,1.30
2022-08-07T14:57:55.151Z,1.13
2022-08-07T15:00:30.195Z,1.10
2022-08-07T15:02:57.917Z,1.20
2022-08-07T15:05:26.619Z,1.27
2022-08-07T15:07:54.213Z,1.25
2022-08-07T15:10:29.981Z,1.30
2022-08-07T15:13:00.758Z,1.45
2022-08-07T15:17:56.182Z,1.40
2022-08-07T15:20:33.952Z,1.30
2022-08-07T15:23:17.000Z,1.35
2022-08-07T15:25:49.989Z,1.13
2022-08-07T15:28:32.213Z,1.30
2022-08-07T15:33:57.222Z,1.25
2022-08-07T15:37:02.463Z,1.45
2022-08-07T15:39:12.347Z,1.55
2022-08-07T15:44:51.710Z,1.52
2022-08-07T15:47:19.552Z,3.03
2022-08-07T15:50:05.253Z,1.52
2022-08-07T15:52:34.414Z,1.40
2022-08-07T15:55:04.041Z,1.30
2022-08-07T15:57:48.040Z,1.30
2022-08-07T16:00:31.680Z,1.42
2022-08-07T16:03:02.347Z,1.50
2022-08-07T16:05:31.198Z,1.70
2022-08-07T16:08:32.272Z,1.70
2022-08-07T16:11:03.342Z,1.60
2022-08-07T16:13:58.594Z,2.00
2022-08-07T16:16:48.269Z,2.15
2022-08-07T16:19:41.842Z,2.03
2022-08-07T16:22:31.538Z,2.00
2022-08-07T16:25:07.614Z,1.90
2022-08-07T16:27:57.135Z,2.30
2022-08-07T16:30:31.486Z,2.00
2022-08-07T16:34:03.294Z,1.98
2022-08-07T16:36:03.028Z,1.88
2022-08-07T16:39:00.466Z,2.70
2022-08-07T16:41:41.575Z,2.55
2022-08-07T16:44:53.872Z,2.50
2022-08-07T16:47:49.771Z,2.35
2022-08-07T16:50:36.955Z,2.50
2022-08-07T16:53:55.543Z,2.30
2022-08-07T16:56:05.388Z,3.90
2022-08-07T16:59:02.310Z,2.97
2022-08-07T17:01:27.248Z,2.35
2022-08-07T17:04:24.726Z,2.55
2022-08-07T17:07:02.821Z,2.28
2022-08-07T17:10:07.970Z,2.15
2022-08-07T17:12:44.241Z,2.50
2022-08-07T17:15:15.649Z,2.33
2022-08-07T17:17:48.007Z,2.20
2022-08-07T17:20:21.475Z,2.20
2022-08-07T17:23:02.529Z,2.05
2022-08-07T17:25:51.831Z,2.38
2022-08-07T17:28:23.679Z,2.20
2022-08-07T17:30:58.371Z,2.00
2022-08-07T17:34:08.465Z,2.08
2022-08-07T17:36:20.341Z,2.15
2022-08-07T17:38:50.951Z,2.20
2022-08-07T17:42:03.010Z,2.33
2022-08-07T17:44:43.962Z,2.20
2022-08-07T17:47:37.964Z,2.22
2022-08-07T17:50:19.522Z,2.20
2022-08-07T17:52:52.326Z,2.17
2022-08-07T17:55:55.075Z,2.60
2022-08-07T17:58:35.477Z,2.35
2022-08-07T18:01:20.728Z,2.10
2022-08-07T18:04:06.771Z,2.28
2022-08-07T18:06:38.857Z,2.58
2022-08-07T18:09:06.429Z,2.38
2022-08-07T18:12:17.490Z,2.20
2022-08-07T18:14:46.254Z,2.30
2022-08-07T18:18:46.500Z,2.28
2022-08-07T18:21:11.606Z,2.53
2022-08-07T18:23:42.550Z,2.60
2022-08-07T18:26:14.808Z,2.50
2022-08-07T18:28:57.865Z,2.50
2022-08-07T18:31:40.687Z,2.40
2022-08-07T18:34:37.054Z,2.75
2022-08-07T18:38:57.382Z,2.60
2022-08-07T18:43:36.973Z,2.50
2022-08-07T18:46:24.492Z,2.90
2022-08-07T18:50:30.572Z,2.70
2022-08-07T18:52:34.997Z,2.75
2022-08-07T18:55:41.932Z,2.38
2022-08-07T19:00:55.109Z,2.47
2022-08-07T19:06:05.163Z,2.60
2022-08-07T19:08:46.556Z,2.60
2022-08-07T19:11:34.831Z,2.53
2022-08-07T19:14:08.116Z,3.05
2022-08-07T19:17:04.946Z,2.85
2022-08-07T19:19:41.140Z,2.25
2022-08-07T19:22:14.822Z,2.58
2022-08-07T19:24:49.964Z,3.13
2022-08-07T19:28:58.737Z,2.83
2022-08-07T19:31:05.964Z,2.90
2022-08-07T19:33:01.410Z,2.95
2022-08-07T19:35:36.847Z,3.30
2022-08-07T19:38:15.727Z,3.00
2022-08-07T19:43:48.980Z,2.88
2022-08-07T19:46:10.715Z,2.83
2022-08-07T19:48:42.949Z,2.67
2022-08-07T19:51:20.079Z,3.00
2022-08-07T19:54:33.256Z,3.15
2022-08-07T19:57:59.905Z,3.17
2022-08-07T19:59:41.553Z,3.20
2022-08-07T20:02:19.133Z,3.00
2022-08-07T20:04:49.427Z,3.60
2022-08-07T20:07:23.880Z,2.90
2022-08-07T20:10:37.042Z,3.80
2022-08-07T20:12:51.072Z,3.50
2022-08-07T20:15:22.254Z,4.00
2022-08-07T20:17:56.260Z,3.40
2022-08-07T20:20:30.642Z,3.65
2022-08-07T20:23:01.366Z,3.60
2022-08-07T20:28:08.755Z,3.80
2022-08-07T20:30:36.415Z,4.10
2022-08-07T20:33:09.142Z,4.85
2022-08-07T20:36:03.180Z,4.20
2022-08-07T20:38:30.046Z,4.68
2022-08-07T20:40:58.502Z,4.57
2022-08-07T20:43:26.636Z,4.35
2022-08-07T20:46:28.619Z,4.55
2022-08-07T20:48:58.016Z,4.57
2022-08-07T20:51:29.108Z,4.50
2022-08-07T20:54:03.822Z,5.20
2022-08-07T20:56:41.097Z,4.55
2022-08-07T21:00:05.226Z,4.85
2022-08-07T21:02:04.276Z,5.50
2022-08-07T21:04:40.911Z,5.05
2022-08-07T21:07:14.550Z,5.20
2022-08-07T21:10:00.184Z,5.50
2022-08-07T21:12:30.988Z,5.40
2022-08-07T21:14:59.659Z,4.95
2022-08-07T21:18:03.444Z,4.90
2022-08-07T21:20:26.651Z,5.70
2022-08-07T21:22:54.396Z,5.22
2022-08-07T21:25:38.660Z,5.65
2022-08-07T21:28:09.033Z,5.40
2022-08-07T21:30:39.644Z,5.50
2022-08-07T21:33:21.444Z,5.07
2022-08-07T21:36:11.885Z,5.13
2022-08-07T21:38:57.763Z,5.55
2022-08-07T21:41:38.282Z,5.55
2022-08-07T21:44:37.667Z,5.55
2022-08-07T21:47:17.341Z,5.90
2022-08-07T21:50:02.114Z,6.15
2022-08-07T21:52:47.978Z,5.70
2022-08-07T21:55:19.413Z,5.20
2022-08-07T21:58:22.166Z,5.72
2022-08-07T22:00:59.564Z,5.53
2022-08-07T22:03:31.217Z,5.90
2022-08-07T22:06:07.425Z,5.72
2022-08-07T22:08:59.411Z,5.72
2022-08-07T22:11:30.751Z,7.03
2022-08-07T22:14:15.257Z,5.63
2022-08-07T22:16:56.127Z,6.03
2022-08-07T22:19:29.611Z,6.30
2022-08-07T22:22:17.958Z,6.55
2022-08-07T22:24:55.371Z,6.32
2022-08-07T22:27:33.987Z,5.70
2022-08-07T22:30:15.760Z,6.13
2022-08-07T22:33:01.257Z,6.13
2022-08-07T22:35:39.735Z,6.45
2022-08-07T22:38:24.072Z,5.95
2022-08-07T22:40:54.560Z,6.25
2022-08-07T22:43:39.120Z,6.20
2022-08-07T22:47:02.507Z,6.15
2022-08-07T22:49:27.394Z,6.70
2022-08-07T22:52:00.560Z,6.50
2022-08-07T22:54:33.851Z,6.68
2022-08-07T22:57:00.571Z,5.82
2022-08-07T22:59:46.114Z,6.30
2022-08-07T23:02:37.510Z,6.25
2022-08-07T23:06:07.566Z,6.20
2022-08-07T23:08:24.075Z,6.05
2022-08-07T23:11:13.227Z,6.50
2022-08-07T23:13:49.265Z,6.20
2022-08-07T23:16:48.366Z,5.55
2022-08-07T23:19:51.156Z,5.43
2022-08-07T23:22:37.305Z,6.35
2022-08-07T23:25:05.474Z,6.22
2022-08-07T23:28:21.468Z,6.38
2022-08-07T23:31:06.417Z,6.45
2022-08-07T23:34:34.210Z,6.28
2022-08-07T23:36:43.172Z,6.25
2022-08-07T23:39:09.697Z,5.72
2022-08-07T23:41:47.665Z,6.18
2022-08-07T23:45:03.051Z,5.90
2022-08-07T23:47:48.005Z,6.32
2022-08-07T23:50:17.599Z,6.40
2022-08-07T23:53:01.973Z,6.90
2022-08-07T23:55:52.413Z,7.00
2022-08-07T23:58:35.652Z,6.30
